Time;durP1;ratioP1;P1;durP2;ratioP2;P2;SDS_P1;SDS_P2;PMS_P1;PMS_P2;Temp;Humidity;BMP_temperature;BMP_pressure;BME280_temperature;BME280_humidity;BME280_pressure;Samples;Min_cycle;Max_cycle;Signal;HPM_P1;HPM_P2
2021/03/16 00:01:03;;;;;;;1.77;1.13;;;5.30;99.90;;;;;;5015249;28;20469;-72
2021/03/16 00:03:29;;;;;;;2.40;1.70;;;5.20;99.90;;;;;;5010837;28;20427;-70
2021/03/16 00:05:55;;;;;;;1.48;1.30;;;5.70;99.90;;;;;;5023645;28;20393;-68
2021/03/16 00:08:20;;;;;;;1.88;1.77;;;5.90;99.90;;;;;;5018931;28;20377;-68
2021/03/16 00:10:46;;;;;;;1.60;1.50;;;6.00;99.90;;;;;;5045299;28;20463;-68
2021/03/16 00:13:12;;;;;;;2.17;1.63;;;5.60;99.90;;;;;;5017985;28;20383;-68
2021/03/16 00:15:38;;;;;;;2.92;2.20;;;5.70;99.90;;;;;;5025909;28;20389;-67
2021/03/16 00:18:04;;;;;;;2.40;2.05;;;5.60;99.90;;;;;;5025060;28;20467;-68
2021/03/16 00:20:31;;;;;;;1.60;1.50;;;5.40;99.90;;;;;;5018406;28;20385;-68
2021/03/16 00:22:56;;;;;;;2.40;1.70;;;6.40;99.90;;;;;;5029944;28;20852;-68
2021/03/16 00:25:22;;;;;;;2.20;1.80;;;5.90;99.90;;;;;;5018886;28;20415;-68
2021/03/16 00:27:48;;;;;;;2.03;1.83;;;5.00;99.90;;;;;;5024614;28;20472;-68
2021/03/16 00:30:14;;;;;;;2.03;1.63;;;6.60;99.90;;;;;;5041220;28;20755;-67
2021/03/16 00:32:40;;;;;;;4.73;1.50;;;5.10;99.90;;;;;;5002683;28;20438;-68
2021/03/16 00:35:06;;;;;;;2.50;1.70;;;5.60;99.90;;;;;;5016425;28;20468;-69
2021/03/16 00:37:33;;;;;;;3.20;1.60;;;5.10;99.90;;;;;;5025775;28;20408;-68
2021/03/16 00:39:58;;;;;;;1.58;1.48;;;5.10;99.90;;;;;;5024273;28;20375;-68
2021/03/16 00:42:24;;;;;;;2.50;1.50;;;5.90;99.90;;;;;;5018084;28;20522;-68
2021/03/16 00:44:50;;;;;;;4.57;1.47;;;5.40;99.90;;;;;;5029344;28;20502;-68
2021/03/16 00:47:15;;;;;;;3.30;2.10;;;5.70;99.90;;;;;;5017696;28;20894;-68
2021/03/16 00:49:41;;;;;;;2.70;1.90;;;5.30;99.90;;;;;;5024594;28;20381;-67
2021/03/16 00:52:07;;;;;;;2.08;1.75;;;5.20;99.90;;;;;;5024660;28;20387;-68
2021/03/16 00:54:32;;;;;;;1.90;1.55;;;5.10;99.90;;;;;;5017049;28;20385;-68
2021/03/16 00:56:58;;;;;;;1.98;1.45;;;5.60;99.90;;;;;;5029879;28;20402;-68
2021/03/16 00:59:23;;;;;;;2.40;1.90;;;5.90;99.90;;;;;;5033883;28;21168;-68
2021/03/16 01:01:49;;;;;;;3.45;2.03;;;5.70;99.90;;;;;;5023094;28;20385;-68
2021/03/16 01:04:15;;;;;;;2.00;1.40;;;5.70;99.90;;;;;;5025150;28;20413;-67
2021/03/16 01:06:40;;;;;;;2.60;1.50;;;5.80;99.90;;;;;;5016075;28;20385;-68
2021/03/16 01:09:06;;;;;;;4.00;2.28;;;5.30;99.90;;;;;;5028405;28;20389;-68
2021/03/16 01:11:32;;;;;;;2.65;1.60;;;5.80;99.90;;;;;;5020000;28;20387;-68
2021/03/16 01:13:58;;;;;;;1.80;1.70;;;5.70;99.90;;;;;;5022054;28;20435;-67
2021/03/16 01:16:23;;;;;;;1.97;1.33;;;5.00;99.90;;;;;;5026382;28;21034;-67
2021/03/16 01:18:49;;;;;;;2.00;1.80;;;4.90;99.90;;;;;;5016038;28;20393;-68
2021/03/16 01:21:15;;;;;;;2.60;1.77;;;5.00;99.90;;;;;;5026849;28;20388;-68
2021/03/16 01:23:41;;;;;;;1.55;1.45;;;5.20;99.90;;;;;;5021256;28;20808;-67
2021/03/16 01:26:06;;;;;;;3.45;1.90;;;4.90;99.90;;;;;;5019416;28;20454;-68
2021/03/16 01:28:33;;;;;;;2.80;2.00;;;4.90;99.90;;;;;;5028177;28;20907;-68
2021/03/16 01:31:00;;;;;;;2.40;2.17;;;5.00;99.90;;;;;;5014932;28;21081;-68
2021/03/16 01:33:26;;;;;;;2.90;1.65;;;6.20;99.90;;;;;;5018238;28;20755;-68
2021/03/16 01:35:51;;;;;;;2.50;1.80;;;5.80;99.90;;;;;;5022423;28;20392;-68
2021/03/16 01:38:17;;;;;;;2.88;1.50;;;5.30;99.90;;;;;;5024735;28;20416;-67
2021/03/16 01:40:43;;;;;;;3.53;2.20;;;5.10;99.90;;;;;;5015830;28;20388;-68
2021/03/16 01:43:22;;;;;;;2.83;2.00;;;5.50;99.90;;;;;;5027155;28;20397;-68
2021/03/16 01:45:49;;;;;;;2.35;1.80;;;4.90;99.90;;;;;;5021846;28;20383;-68
2021/03/16 01:48:19;;;;;;;2.58;2.00;;;5.60;99.90;;;;;;5018583;28;20411;-68
2021/03/16 01:50:45;;;;;;;2.70;1.90;;;5.90;99.90;;;;;;5028507;28;20375;-68
2021/03/16 01:53:12;;;;;;;2.93;1.93;;;5.50;99.90;;;;;;5015684;28;20393;-67
2021/03/16 01:55:38;;;;;;;4.65;2.33;;;5.60;99.90;;;;;;5024062;28;20420;-67
2021/03/16 01:58:04;;;;;;;2.78;1.20;;;5.30;99.90;;;;;;5023593;28;20392;-71
2021/03/16 02:00:38;;;;;;;1.95;1.75;;;5.60;99.90;;;;;;5031633;28;20801;-67
2021/03/16 02:03:06;;;;;;;3.83;2.13;;;5.20;99.90;;;;;;4998972;28;20743;-71
2021/03/16 02:05:32;;;;;;;4.00;1.80;;;4.80;99.90;;;;;;5023570;28;20389;-67
2021/03/16 02:08:10;;;;;;;2.00;1.80;;;5.20;99.90;;;;;;5022678;28;20474;-67
2021/03/16 02:10:41;;;;;;;1.57;1.43;;;5.10;99.90;;;;;;5015817;28;20777;-67
2021/03/16 02:13:17;;;;;;;2.75;1.80;;;5.40;99.90;;;;;;4999343;28;20387;-71
2021/03/16 02:15:44;;;;;;;2.90;1.60;;;5.30;99.90;;;;;;5022809;28;20443;-67
2021/03/16 02:18:14;;;;;;;2.00;1.48;;;5.10;99.90;;;;;;5023414;28;20390;-68
2021/03/16 02:21:04;;;;;;;4.22;2.00;;;5.50;99.90;;;;;;5015169;28;20436;-67
2021/03/16 02:23:51;;;;;;;2.20;2.00;;;5.10;99.90;;;;;;5024259;28;20417;-67
2021/03/16 02:26:40;;;;;;;1.80;1.60;;;4.90;99.90;;;;;;5024507;28;20395;-67
2021/03/16 02:29:08;;;;;;;2.10;1.90;;;4.90;99.90;;;;;;5014652;28;20394;-72
2021/03/16 02:31:36;;;;;;;3.13;1.70;;;5.40;99.90;;;;;;5018082;28;20398;-68
2021/03/16 02:34:04;;;;;;;1.83;1.63;;;5.20;99.90;;;;;;5014546;28;20398;-68
2021/03/16 02:36:32;;;;;;;2.90;2.00;;;5.70;99.90;;;;;;5015403;28;20476;-67
2021/03/16 02:39:00;;;;;;;2.40;1.90;;;5.80;99.90;;;;;;5027748;28;20588;-67
2021/03/16 02:41:27;;;;;;;2.50;1.70;;;5.30;99.90;;;;;;5017325;28;20387;-67
2021/03/16 02:43:53;;;;;;;5.20;1.80;;;5.20;99.90;;;;;;5026213;28;20425;-67
2021/03/16 02:46:20;;;;;;;2.47;1.80;;;5.60;99.90;;;;;;5024164;28;20390;-68
2021/03/16 02:48:47;;;;;;;2.50;1.60;;;5.70;99.90;;;;;;5014411;28;20854;-68
2021/03/16 02:51:14;;;;;;;2.42;1.40;;;5.20;99.90;;;;;;5025143;28;20393;-67
2021/03/16 02:53:41;;;;;;;1.77;1.50;;;5.20;99.90;;;;;;5019421;28;20391;-68
2021/03/16 02:56:08;;;;;;;1.55;1.20;;;6.60;99.90;;;;;;5018368;28;20491;-72
2021/03/16 02:58:35;;;;;;;2.33;1.70;;;5.70;99.90;;;;;;5026817;28;20383;-68
2021/03/16 03:01:02;;;;;;;4.03;1.77;;;5.00;99.90;;;;;;5014432;28;20658;-68
2021/03/16 03:03:30;;;;;;;3.35;1.98;;;4.90;99.90;;;;;;5023302;28;20415;-68
2021/03/16 03:05:58;;;;;;;2.70;1.80;;;5.60;99.90;;;;;;5021411;28;20470;-68
2021/03/16 03:08:24;;;;;;;2.50;1.90;;;5.20;99.90;;;;;;5025279;28;20436;-68
2021/03/16 03:10:50;;;;;;;6.27;2.10;;;5.20;99.90;;;;;;5027025;28;20454;-69
2021/03/16 03:13:16;;;;;;;2.47;1.70;;;5.10;99.90;;;;;;5015290;28;20882;-68
2021/03/16 03:15:42;;;;;;;3.53;1.65;;;5.60;99.90;;;;;;5022142;28;20404;-68
2021/03/16 03:18:07;;;;;;;1.60;1.40;;;5.60;99.90;;;;;;5022530;28;20867;-73
2021/03/16 03:20:34;;;;;;;1.80;1.50;;;5.10;99.90;;;;;;5014677;28;20377;-68
2021/03/16 03:23:24;;;;;;;4.30;1.55;;;5.30;99.90;;;;;;5026810;28;20384;-67
2021/03/16 03:26:00;;;;;;;2.30;1.30;;;5.50;99.90;;;;;;5035840;28;20418;-68
2021/03/16 03:28:29;;;;;;;4.40;1.85;;;4.80;99.90;;;;;;5015131;28;20451;-68
2021/03/16 03:31:02;;;;;;;3.10;1.33;;;5.40;99.90;;;;;;5026761;28;20375;-69
2021/03/16 03:33:30;;;;;;;1.42;1.33;;;5.00;99.90;;;;;;5003620;28;20427;-68
2021/03/16 03:36:00;;;;;;;2.10;1.20;;;4.50;99.90;;;;;;5019780;28;20404;-68
2021/03/16 03:38:26;;;;;;;1.27;1.17;;;5.30;99.90;;;;;;5024031;28;20402;-69
2021/03/16 03:40:52;;;;;;;2.47;1.27;;;5.10;99.90;;;;;;5013909;28;20415;-68
2021/03/16 03:43:19;;;;;;;2.30;1.13;;;5.20;99.90;;;;;;5023761;28;20377;-69
2021/03/16 03:45:48;;;;;;;2.95;1.70;;;5.40;99.90;;;;;;5019309;28;20391;-68
2021/03/16 03:48:15;;;;;;;3.20;1.20;;;5.10;99.90;;;;;;5016225;28;20389;-68
2021/03/16 03:50:42;;;;;;;2.40;1.60;;;5.40;99.90;;;;;;5026880;28;20445;-69
2021/03/16 03:53:11;;;;;;;2.05;1.10;;;5.70;99.90;;;;;;5029487;28;20880;-71
2021/03/16 03:55:37;;;;;;;1.50;1.40;;;5.10;99.90;;;;;;5022038;28;20441;-69
2021/03/16 03:58:04;;;;;;;1.30;1.20;;;4.90;99.90;;;;;;5021713;28;20513;-68
2021/03/16 04:00:31;;;;;;;3.65;1.70;;;5.10;99.90;;;;;;5029670;28;21071;-68
2021/03/16 04:02:59;;;;;;;2.33;1.27;;;4.90;99.90;;;;;;5026627;28;20387;-68
2021/03/16 04:05:26;;;;;;;1.58;1.30;;;4.70;99.90;;;;;;5015914;28;20443;-68
2021/03/16 04:07:52;;;;;;;1.80;1.30;;;4.70;99.90;;;;;;5019970;28;20873;-68
2021/03/16 04:10:18;;;;;;;2.43;1.37;;;5.70;99.90;;;;;;5038399;28;20863;-68
2021/03/16 04:12:44;;;;;;;1.60;1.35;;;5.10;99.90;;;;;;5013640;28;20424;-68
2021/03/16 04:15:12;;;;;;;1.50;1.40;;;5.30;99.90;;;;;;5025645;28;20388;-73
2021/03/16 04:17:39;;;;;;;1.30;1.20;;;4.90;99.90;;;;;;5018143;28;20474;-68
2021/03/16 04:20:07;;;;;;;1.60;1.10;;;5.10;99.90;;;;;;5018412;28;20412;-68
2021/03/16 04:22:33;;;;;;;1.30;1.20;;;4.60;99.90;;;;;;5025001;28;20449;-68
2021/03/16 04:24:59;;;;;;;1.65;1.55;;;4.80;99.90;;;;;;5013361;28;20415;-68
2021/03/16 04:27:24;;;;;;;2.67;1.30;;;5.20;99.90;;;;;;5022581;28;20887;-68
2021/03/16 04:29:51;;;;;;;2.97;1.20;;;5.50;99.90;;;;;;5022029;28;20410;-68
2021/03/16 04:32:17;;;;;;;2.90;1.50;;;5.00;99.90;;;;;;5008233;28;20390;-69
2021/03/16 04:34:43;;;;;;;1.80;1.20;;;4.90;99.90;;;;;;5027211;28;20477;-69
2021/03/16 04:37:09;;;;;;;3.63;1.67;;;5.30;99.90;;;;;;5017505;28;20907;-68
2021/03/16 04:39:34;;;;;;;1.57;1.23;;;6.20;99.90;;;;;;5025054;28;20421;-68
2021/03/16 04:42:00;;;;;;;1.30;1.20;;;5.60;99.90;;;;;;5024692;28;20375;-68
2021/03/16 04:44:26;;;;;;;1.57;1.17;;;4.80;99.90;;;;;;5017749;28;20507;-68
2021/03/16 04:46:52;;;;;;;1.30;1.10;;;4.60;99.90;;;;;;5029487;28;20717;-68
2021/03/16 04:49:17;;;;;;;2.30;1.37;;;4.70;99.90;;;;;;5017936;28;20380;-68
2021/03/16 04:51:43;;;;;;;1.40;1.30;;;5.10;99.90;;;;;;5024444;28;20377;-68
2021/03/16 04:54:09;;;;;;;1.70;1.10;;;4.70;99.90;;;;;;5025427;28;20464;-68
2021/03/16 04:56:35;;;;;;;1.90;1.10;;;4.70;99.90;;;;;;5016330;28;20782;-69
2021/03/16 04:59:00;;;;;;;1.90;1.00;;;5.20;99.90;;;;;;5029587;28;20900;-68
2021/03/16 05:01:26;;;;;;;1.30;1.10;;;4.60;99.90;;;;;;5019070;28;20495;-68
2021/03/16 05:03:52;;;;;;;2.80;1.20;;;5.70;99.90;;;;;;5023045;28;20407;-68
2021/03/16 05:06:17;;;;;;;2.73;1.60;;;5.60;99.90;;;;;;5026049;28;20387;-68
2021/03/16 05:08:43;;;;;;;1.60;1.20;;;5.30;99.90;;;;;;5016568;28;20460;-68
2021/03/16 05:11:09;;;;;;;1.93;1.17;;;5.70;99.90;;;;;;5029207;28;20479;-68
2021/03/16 05:13:34;;;;;;;2.20;1.30;;;6.00;99.90;;;;;;5019775;28;20398;-69
2021/03/16 05:16:01;;;;;;;1.50;1.30;;;5.60;99.90;;;;;;5021662;28;20389;-68
2021/03/16 05:18:27;;;;;;;2.40;1.30;;;5.00;99.90;;;;;;5026999;28;20399;-68
2021/03/16 05:20:53;;;;;;;1.70;1.40;;;4.90;99.90;;;;;;5016764;28;20889;-69
2021/03/16 05:23:19;;;;;;;1.70;1.20;;;6.00;99.90;;;;;;5026238;28;20423;-69
2021/03/16 05:25:44;;;;;;;3.30;1.70;;;5.00;99.90;;;;;;5021742;28;20470;-67
2021/03/16 05:28:10;;;;;;;2.03;1.48;;;5.40;99.90;;;;;;5020142;28;20420;-67
2021/03/16 05:30:36;;;;;;;3.35;1.98;;;4.80;99.90;;;;;;5028068;28;20595;-67
2021/03/16 05:33:02;;;;;;;3.63;1.63;;;5.20;99.90;;;;;;4998999;28;20462;-67
2021/03/16 05:35:28;;;;;;;1.88;1.63;;;4.80;99.90;;;;;;5019047;28;20864;-67
2021/03/16 05:37:55;;;;;;;5.20;1.63;;;5.20;99.90;;;;;;5032248;28;20399;-67
2021/03/16 05:40:22;;;;;;;2.20;1.60;;;4.60;99.90;;;;;;5016408;28;20738;-67
2021/03/16 05:42:50;;;;;;;2.23;1.40;;;5.70;99.90;;;;;;5028639;28;20390;-68
2021/03/16 05:45:17;;;;;;;2.75;1.50;;;5.10;99.90;;;;;;5016769;28;20406;-72
2021/03/16 05:47:44;;;;;;;2.83;1.70;;;4.70;99.90;;;;;;5023504;28;20876;-68
2021/03/16 05:50:10;;;;;;;2.15;1.55;;;5.50;99.90;;;;;;5039920;28;20517;-68
2021/03/16 05:52:36;;;;;;;1.98;1.55;;;4.70;99.90;;;;;;5015413;28;20456;-68
2021/03/16 05:55:04;;;;;;;1.90;1.50;;;5.00;99.90;;;;;;5031832;28;20887;-68
2021/03/16 05:57:30;;;;;;;2.20;1.38;;;4.70;99.90;;;;;;5024000;28;20429;-68
2021/03/16 05:59:55;;;;;;;1.27;1.00;;;4.70;99.90;;;;;;5021257;28;20489;-68
2021/03/16 06:02:21;;;;;;;2.05;1.50;;;5.00;99.90;;;;;;5017907;28;20959;-68
2021/03/16 06:04:47;;;;;;;2.92;1.60;;;5.20;99.90;;;;;;5028872;28;20496;-68
2021/03/16 06:07:14;;;;;;;3.80;1.55;;;5.10;99.90;;;;;;5016739;28;20763;-68
2021/03/16 06:09:41;;;;;;;2.90;1.70;;;5.90;99.90;;;;;;5022565;28;20464;-68
2021/03/16 06:12:07;;;;;;;3.17;1.58;;;6.40;99.90;;;;;;5024016;28;20402;-68
2021/03/16 06:14:34;;;;;;;3.88;1.50;;;4.80;99.90;;;;;;5015225;28;20837;-67
2021/03/16 06:17:00;;;;;;;3.08;1.63;;;5.90;99.90;;;;;;5028260;28;20404;-68
2021/03/16 06:19:34;;;;;;;2.38;1.50;;;4.80;99.90;;;;;;5017268;28;20386;-67
2021/03/16 06:22:07;;;;;;;2.60;1.40;;;5.10;99.90;;;;;;5020694;28;20385;-68
2021/03/16 06:24:43;;;;;;;4.97;1.90;;;4.80;99.90;;;;;;5026463;28;20852;-69
2021/03/16 06:27:19;;;;;;;2.20;1.50;;;5.40;99.90;;;;;;5000139;28;20406;-68
2021/03/16 06:29:46;;;;;;;3.80;1.50;;;5.50;99.90;;;;;;5022352;28;20396;-69
2021/03/16 06:32:12;;;;;;;1.88;1.60;;;4.80;99.90;;;;;;5013195;28;20480;-68
2021/03/16 06:34:38;;;;;;;3.47;1.85;;;5.30;99.90;;;;;;5025488;28;20467;-68
2021/03/16 06:37:04;;;;;;;2.40;1.50;;;5.80;99.90;;;;;;5014557;28;20458;-68
2021/03/16 06:39:29;;;;;;;2.70;1.60;;;4.90;99.90;;;;;;5022586;28;20440;-68
2021/03/16 06:41:55;;;;;;;2.10;1.90;;;5.10;99.90;;;;;;5020936;28;20387;-67
2021/03/16 06:44:23;;;;;;;2.27;1.50;;;5.50;99.90;;;;;;5016070;28;20535;-69
2021/03/16 06:46:58;;;;;;;3.35;1.30;;;5.20;99.90;;;;;;5027260;28;20415;-69
2021/03/16 06:49:25;;;;;;;1.77;1.30;;;5.10;99.90;;;;;;5025338;28;20473;-69
2021/03/16 06:51:54;;;;;;;2.70;1.15;;;5.60;99.90;;;;;;5011204;28;20392;-68
2021/03/16 06:54:24;;;;;;;3.30;1.80;;;6.00;99.90;;;;;;5010388;28;20396;-72
2021/03/16 06:57:01;;;;;;;1.40;1.30;;;5.70;99.90;;;;;;5011221;28;20428;-68
2021/03/16 06:59:29;;;;;;;1.80;1.63;;;5.30;99.90;;;;;;5010249;28;20752;-69
2021/03/16 07:01:55;;;;;;;2.50;1.58;;;5.70;99.90;;;;;;5026586;28;20385;-68
2021/03/16 07:04:23;;;;;;;2.40;1.30;;;5.60;99.90;;;;;;5010624;28;20417;-68
2021/03/16 07:06:50;;;;;;;3.30;1.38;;;6.00;99.90;;;;;;5011401;28;20400;-68
2021/03/16 07:09:18;;;;;;;1.30;1.20;;;6.00;99.90;;;;;;5004791;28;20409;-69
2021/03/16 07:11:47;;;;;;;2.97;1.70;;;4.70;99.90;;;;;;5007796;28;20389;-69
2021/03/16 07:14:15;;;;;;;1.60;1.50;;;5.50;99.90;;;;;;5006942;28;20975;-73
2021/03/16 07:16:43;;;;;;;2.83;1.57;;;5.40;99.90;;;;;;5011084;28;20525;-69
2021/03/16 07:19:09;;;;;;;1.80;1.40;;;6.00;99.90;;;;;;4994832;28;20388;-69
2021/03/16 07:21:40;;;;;;;3.20;1.53;;;5.60;99.90;;;;;;4999759;28;20393;-69
2021/03/16 07:24:08;;;;;;;2.08;1.55;;;5.40;99.90;;;;;;4994480;28;20416;-69
2021/03/16 07:26:34;;;;;;;2.95;1.85;;;5.10;99.90;;;;;;4998022;28;20411;-69
2021/03/16 07:29:02;;;;;;;2.40;1.40;;;5.50;99.90;;;;;;4995499;28;20401;-69
2021/03/16 07:31:30;;;;;;;3.72;1.50;;;5.50;99.90;;;;;;4995668;28;20761;-72
2021/03/16 07:33:59;;;;;;;1.30;1.10;;;6.20;99.90;;;;;;4997844;28;21618;-68
2021/03/16 07:36:25;;;;;;;3.10;1.70;;;5.60;99.90;;;;;;5010859;28;20409;-70
2021/03/16 07:38:52;;;;;;;4.05;1.42;;;6.10;99.90;;;;;;5013380;28;20421;-68
2021/03/16 07:41:18;;;;;;;5.03;1.73;;;6.20;99.90;;;;;;5002206;28;20385;-68
2021/03/16 07:43:44;;;;;;;2.03;1.60;;;6.90;99.90;;;;;;5004065;28;20443;-68
2021/03/16 07:46:14;;;;;;;2.10;1.90;;;6.90;99.90;;;;;;5003215;28;20393;-68
2021/03/16 07:48:55;;;;;;;3.40;1.50;;;5.90;99.90;;;;;;5003614;28;20475;-68
2021/03/16 07:51:23;;;;;;;3.25;1.70;;;5.60;99.90;;;;;;5003388;28;20381;-73
2021/03/16 07:54:00;;;;;;;3.10;1.80;;;6.10;99.90;;;;;;5002034;28;20384;-68
2021/03/16 07:56:28;;;;;;;1.70;1.40;;;6.10;99.90;;;;;;5001842;28;20428;-69
2021/03/16 07:58:55;;;;;;;1.90;1.70;;;6.60;99.90;;;;;;5004325;28;20397;-69
2021/03/16 08:01:21;;;;;;;2.83;1.60;;;5.80;99.90;;;;;;5001688;28;20386;-72
2021/03/16 08:03:47;;;;;;;1.60;1.30;;;5.90;99.90;;;;;;5002118;28;20412;-71
2021/03/16 08:06:27;;;;;;;3.22;1.60;;;5.80;99.90;;;;;;5006194;28;20459;-69
2021/03/16 08:08:53;;;;;;;3.40;1.88;;;5.80;99.90;;;;;;5006252;28;20881;-71
2021/03/16 08:11:20;;;;;;;2.70;1.40;;;5.60;99.90;;;;;;5005506;28;20391;-69
2021/03/16 08:14:00;;;;;;;2.00;1.52;;;5.80;99.90;;;;;;5004708;28;20400;-68
2021/03/16 08:16:42;;;;;;;3.10;1.50;;;6.30;99.90;;;;;;5006179;28;20396;-72
2021/03/16 08:19:18;;;;;;;2.38;1.40;;;6.00;99.90;;;;;;5006702;28;20419;-68
2021/03/16 08:21:44;;;;;;;1.50;1.20;;;5.80;99.90;;;;;;5004445;28;20475;-68
2021/03/16 08:24:14;;;;;;;1.73;1.33;;;5.90;99.90;;;;;;5002473;28;20404;-70
2021/03/16 08:26:51;;;;;;;1.90;1.50;;;5.90;99.90;;;;;;5008137;28;20393;-69
2021/03/16 08:29:26;;;;;;;1.13;1.03;;;5.90;99.90;;;;;;5008505;28;20405;-67
2021/03/16 08:31:56;;;;;;;3.55;2.10;;;6.70;99.90;;;;;;5004899;28;20393;-68
2021/03/16 08:34:26;;;;;;;2.30;1.90;;;6.00;99.90;;;;;;5005605;28;20464;-73
2021/03/16 08:36:53;;;;;;;4.00;1.50;;;6.00;99.90;;;;;;5006568;28;20386;-69
2021/03/16 08:39:24;;;;;;;1.90;1.60;;;6.10;99.90;;;;;;5006541;28;20904;-69
2021/03/16 08:41:59;;;;;;;2.70;2.00;;;6.80;99.90;;;;;;5006008;28;20463;-69
2021/03/16 08:44:26;;;;;;;1.58;1.30;;;5.90;99.90;;;;;;5002595;28;20515;-72
2021/03/16 08:46:53;;;;;;;2.00;1.20;;;5.90;99.90;;;;;;5006717;28;20959;-69
2021/03/16 08:49:20;;;;;;;3.10;1.50;;;6.20;99.90;;;;;;5007264;28;20750;-68
2021/03/16 08:51:46;;;;;;;2.13;1.90;;;6.50;99.90;;;;;;5000717;28;20397;-69
2021/03/16 08:54:25;;;;;;;3.10;1.55;;;5.90;99.90;;;;;;5005306;28;20423;-70
2021/03/16 08:56:51;;;;;;;2.60;1.50;;;6.00;99.90;;;;;;5004028;28;20393;-69
2021/03/16 08:59:23;;;;;;;3.80;1.30;;;6.00;99.90;;;;;;5004168;28;20418;-68
2021/03/16 09:01:50;;;;;;;2.55;1.42;;;6.20;99.90;;;;;;5001164;28;20404;-68
2021/03/16 09:04:18;;;;;;;2.25;1.90;;;6.00;99.90;;;;;;5018383;28;20470;-68
2021/03/16 09:06:44;;;;;;;1.80;1.70;;;6.20;99.90;;;;;;5001952;28;20389;-68
2021/03/16 09:09:11;;;;;;;3.40;1.70;;;6.20;99.90;;;;;;5006197;28;20420;-68
2021/03/16 09:11:43;;;;;;;3.03;1.60;;;6.00;99.90;;;;;;4998881;28;20401;-68
2021/03/16 09:14:20;;;;;;;1.85;1.75;;;6.80;99.90;;;;;;5003621;28;20750;-70
2021/03/16 09:16:48;;;;;;;3.35;1.65;;;6.20;99.90;;;;;;5013153;28;20391;-69
2021/03/16 09:19:17;;;;;;;3.97;1.85;;;6.20;99.90;;;;;;5001445;28;20378;-71
2021/03/16 09:21:58;;;;;;;2.33;1.50;;;6.40;99.90;;;;;;5000449;28;20392;-70
2021/03/16 09:24:26;;;;;;;2.75;1.70;;;6.90;99.90;;;;;;5020164;28;20447;-72
2021/03/16 09:27:10;;;;;;;4.50;1.90;;;6.30;99.90;;;;;;5003773;28;20418;-68
2021/03/16 09:29:38;;;;;;;3.67;2.22;;;6.40;99.90;;;;;;5018506;28;20408;-69
2021/03/16 09:32:10;;;;;;;1.92;1.77;;;6.40;99.90;;;;;;5002846;28;20387;-69
2021/03/16 09:34:39;;;;;;;2.42;1.55;;;6.50;99.90;;;;;;5003243;28;20469;-68
2021/03/16 09:37:08;;;;;;;1.92;1.60;;;6.70;99.90;;;;;;5014432;28;20894;-68
2021/03/16 09:39:34;;;;;;;4.95;1.90;;;6.40;99.90;;;;;;5003060;28;20494;-70
2021/03/16 09:42:01;;;;;;;4.43;1.92;;;6.60;99.90;;;;;;5002870;28;20382;-70
2021/03/16 09:44:34;;;;;;;2.28;1.70;;;5.80;99.90;;;;;;5002325;28;20424;-73
2021/03/16 09:47:01;;;;;;;3.50;2.20;;;6.20;99.90;;;;;;5002407;28;20490;-70
2021/03/16 09:49:33;;;;;;;3.00;2.20;;;6.30;99.90;;;;;;5000844;28;20381;-71
2021/03/16 09:52:17;;;;;;;2.60;2.00;;;6.60;99.90;;;;;;5000571;28;20448;-69
2021/03/16 09:54:45;;;;;;;2.60;2.03;;;6.20;99.90;;;;;;4998937;28;20393;-68
2021/03/16 09:57:15;;;;;;;2.40;1.80;;;7.20;99.90;;;;;;5005555;28;20400;-73
2021/03/16 09:59:44;;;;;;;3.83;2.13;;;7.10;99.90;;;;;;5003348;28;20461;-68
2021/03/16 10:02:10;;;;;;;1.88;1.52;;;6.50;99.90;;;;;;4999214;28;20787;-71
2021/03/16 10:04:50;;;;;;;2.80;2.00;;;6.50;99.90;;;;;;4998545;28;20490;-68
2021/03/16 10:07:29;;;;;;;1.75;1.58;;;6.60;99.90;;;;;;5005804;28;20473;-69
2021/03/16 10:10:12;;;;;;;3.60;2.00;;;6.30;99.90;;;;;;5005534;28;20737;-69
2021/03/16 10:12:41;;;;;;;2.85;1.70;;;6.30;99.90;;;;;;5005614;28;20884;-69
2021/03/16 10:15:08;;;;;;;3.33;1.70;;;6.50;99.90;;;;;;5007594;28;20415;-68
2021/03/16 10:17:34;;;;;;;4.25;2.10;;;6.40;99.90;;;;;;5005089;28;20470;-69
2021/03/16 10:20:06;;;;;;;2.40;2.00;;;7.60;99.90;;;;;;5005875;28;20476;-69
2021/03/16 10:22:36;;;;;;;1.90;1.67;;;6.50;99.90;;;;;;5003084;28;20391;-68
2021/03/16 10:25:08;;;;;;;2.88;2.00;;;5.70;99.90;;;;;;5006627;28;20413;-69
2021/03/16 10:27:34;;;;;;;2.20;1.90;;;6.60;99.90;;;;;;5005323;28;20412;-69
2021/03/16 10:30:08;;;;;;;5.35;2.15;;;6.70;99.90;;;;;;5001284;28;20392;-72
2021/03/16 10:32:34;;;;;;;1.50;1.40;;;7.00;99.90;;;;;;4997201;28;21181;-73
2021/03/16 10:35:00;;;;;;;1.90;1.00;;;7.50;99.90;;;;;;5007351;28;20415;-69
2021/03/16 10:37:26;;;;;;;2.45;0.90;;;7.50;99.70;;;;;;4993303;28;20393;-73
2021/03/16 10:39:59;;;;;;;0.90;0.80;;;7.70;99.90;;;;;;4997025;28;20764;-69
2021/03/16 10:42:26;;;;;;;0.93;0.77;;;7.80;99.90;;;;;;5001228;28;20435;-69
2021/03/16 10:44:51;;;;;;;1.65;0.90;;;7.50;98.40;;;;;;5007030;28;20419;-70
2021/03/16 10:47:17;;;;;;;2.10;0.93;;;7.50;97.60;;;;;;5003941;28;20423;-73
2021/03/16 10:49:43;;;;;;;2.40;1.00;;;7.40;97.80;;;;;;5006362;28;20468;-69
2021/03/16 10:52:09;;;;;;;1.50;1.00;;;7.40;97.60;;;;;;4998484;28;20549;-70
2021/03/16 10:54:36;;;;;;;0.87;0.77;;;7.50;98.40;;;;;;5006394;28;20757;-71
2021/03/16 10:57:03;;;;;;;1.63;0.63;;;7.40;98.10;;;;;;5002063;28;20404;-70
2021/03/16 10:59:29;;;;;;;2.10;1.10;;;7.40;99.40;;;;;;5007736;28;20417;-69
2021/03/16 11:01:55;;;;;;;1.50;1.00;;;8.10;99.90;;;;;;5005862;28;20895;-71
2021/03/16 11:04:21;;;;;;;2.60;0.98;;;7.40;97.90;;;;;;5006887;28;20412;-70
2021/03/16 11:06:47;;;;;;;1.27;0.90;;;7.70;97.50;;;;;;5006841;28;20397;-68
2021/03/16 11:09:14;;;;;;;2.20;1.20;;;8.20;97.40;;;;;;5010867;28;20381;-68
2021/03/16 11:11:40;;;;;;;2.10;1.00;;;7.70;97.00;;;;;;5006138;28;20388;-71
2021/03/16 11:14:06;;;;;;;1.65;0.73;;;7.60;95.80;;;;;;5006284;28;20401;-69
2021/03/16 11:16:32;;;;;;;2.70;0.90;;;7.50;95.40;;;;;;5007849;28;20392;-69
2021/03/16 11:18:58;;;;;;;2.30;1.00;;;7.90;99.90;;;;;;5005525;28;20396;-67
2021/03/16 11:21:24;;;;;;;1.83;0.95;;;8.00;97.00;;;;;;5007687;28;20383;-68
2021/03/16 11:23:50;;;;;;;2.50;0.95;;;8.00;95.90;;;;;;5005231;28;21043;-69
2021/03/16 11:26:16;;;;;;;1.70;1.00;;;7.90;95.30;;;;;;5007324;28;20604;-69
2021/03/16 11:28:42;;;;;;;1.10;0.90;;;8.00;99.30;;;;;;5008405;28;20403;-69
2021/03/16 11:31:07;;;;;;;1.67;0.80;;;7.90;94.70;;;;;;5009162;28;21037;-69
2021/03/16 11:33:33;;;;;;;1.10;0.60;;;8.10;94.30;;;;;;5004844;28;20424;-69
2021/03/16 11:35:59;;;;;;;1.75;1.00;;;8.20;94.60;;;;;;5007651;28;20783;-69
2021/03/16 11:38:25;;;;;;;2.05;0.70;;;8.20;96.80;;;;;;5007389;28;20894;-68
2021/03/16 11:40:51;;;;;;;1.27;0.60;;;8.40;92.20;;;;;;5011127;28;20395;-72
2021/03/16 11:43:17;;;;;;;1.85;0.57;;;9.40;91.90;;;;;;5013044;28;20783;-69
2021/03/16 11:45:44;;;;;;;2.80;0.70;;;8.50;91.10;;;;;;5011683;28;20520;-69
2021/03/16 11:48:10;;;;;;;2.13;0.68;;;8.90;95.70;;;;;;5010979;28;20388;-68
2021/03/16 11:50:36;;;;;;;1.55;0.60;;;8.70;95.50;;;;;;5012308;28;20381;-68
2021/03/16 11:53:06;;;;;;;1.67;0.70;;;8.80;91.80;;;;;;5011069;28;20385;-67
2021/03/16 11:55:33;;;;;;;1.70;0.90;;;8.90;95.20;;;;;;5011256;28;20385;-73
2021/03/16 11:57:59;;;;;;;1.30;0.70;;;8.60;92.40;;;;;;5010540;28;20401;-70
2021/03/16 12:00:26;;;;;;;1.50;0.70;;;8.20;90.40;;;;;;5007553;28;20409;-69
2021/03/16 12:02:51;;;;;;;0.60;0.50;;;8.50;93.60;;;;;;5010605;28;20492;-69
2021/03/16 12:05:17;;;;;;;0.90;0.60;;;8.60;91.40;;;;;;5011472;28;20469;-69
2021/03/16 12:07:43;;;;;;;1.20;0.63;;;8.70;91.60;;;;;;5005349;28;20397;-69
2021/03/16 12:10:09;;;;;;;1.67;0.65;;;8.80;95.40;;;;;;5005609;28;20393;-69
2021/03/16 12:12:35;;;;;;;1.40;0.60;;;8.40;94.00;;;;;;5006524;28;20472;-69
2021/03/16 12:15:08;;;;;;;2.70;0.70;;;8.80;91.00;;;;;;5006710;28;20432;-69
2021/03/16 12:17:34;;;;;;;0.70;0.70;;;8.50;86.30;;;;;;5009103;28;20395;-73
2021/03/16 12:19:59;;;;;;;1.05;0.60;;;8.90;91.10;;;;;;5004230;28;20382;-73
2021/03/16 12:22:26;;;;;;;0.90;0.60;;;8.20;93.30;;;;;;5007972;28;20384;-73
2021/03/16 12:24:51;;;;;;;1.00;0.60;;;8.10;95.30;;;;;;5007257;28;20419;-69
2021/03/16 12:27:17;;;;;;;1.00;0.70;;;8.10;90.40;;;;;;5008327;28;20396;-71
2021/03/16 12:29:43;;;;;;;3.33;0.90;;;8.70;91.40;;;;;;5008708;28;20393;-68
2021/03/16 12:32:09;;;;;;;1.20;0.57;;;8.50;95.30;;;;;;5010170;28;20388;-68
2021/03/16 12:34:35;;;;;;;1.90;0.68;;;8.20;92.70;;;;;;5011262;28;20381;-73
2021/03/16 12:37:00;;;;;;;1.50;1.00;;;7.90;90.90;;;;;;5006126;28;20410;-69
2021/03/16 12:39:26;;;;;;;2.47;0.80;;;7.80;91.00;;;;;;5009371;28;20450;-69
2021/03/16 12:41:52;;;;;;;1.77;0.77;;;8.00;94.90;;;;;;5008975;28;20456;-68
2021/03/16 12:44:18;;;;;;;0.80;0.60;;;8.10;91.00;;;;;;5026532;28;20423;-69
2021/03/16 12:46:43;;;;;;;1.10;0.67;;;7.90;91.00;;;;;;5012674;28;20411;-69
2021/03/16 12:49:09;;;;;;;1.60;0.90;;;7.20;92.40;;;;;;5011758;28;20777;-70
2021/03/16 12:51:35;;;;;;;1.83;0.90;;;7.40;92.20;;;;;;5011248;28;20384;-73
2021/03/16 12:54:00;;;;;;;2.53;0.75;;;7.70;93.90;;;;;;5011121;28;20515;-69
2021/03/16 12:56:26;;;;;;;0.80;0.70;;;7.50;99.90;;;;;;5007466;28;20427;-69
2021/03/16 12:58:52;;;;;;;0.93;0.85;;;7.20;98.40;;;;;;5008872;28;20599;-69
2021/03/16 13:01:18;;;;;;;0.80;0.60;;;7.10;97.60;;;;;;5008514;28;20385;-72